createdAt,value
2019-02-27T00:00:45.940Z,6.70
2019-02-27T00:01:49.695Z,6.40
2019-02-27T00:02:45.922Z,6.60
2019-02-27T00:03:45.912Z,6.50
2019-02-27T00:04:45.905Z,6.40
2019-02-27T00:05:45.893Z,6.70
2019-02-27T00:06:47.848Z,8.50
2019-02-27T00:07:45.903Z,6.60
2019-02-27T00:08:45.871Z,6.30
2019-02-27T00:09:45.857Z,6.80
2019-02-27T00:10:45.845Z,7.10
2019-02-27T00:11:46.700Z,6.60
2019-02-27T00:12:45.828Z,7.00
2019-02-27T00:13:45.817Z,8.20
2019-02-27T00:14:45.808Z,8.40
2019-02-27T00:15:45.799Z,8.40
2019-02-27T00:16:45.789Z,8.70
2019-02-27T00:17:45.782Z,6.20
2019-02-27T00:18:45.773Z,6.20
2019-02-27T00:19:45.761Z,5.70
2019-02-27T00:20:45.783Z,6.40
2019-02-27T00:21:45.741Z,5.70
2019-02-27T00:22:47.920Z,6.20
2019-02-27T00:23:45.721Z,6.90
2019-02-27T00:24:45.712Z,6.80
2019-02-27T00:25:45.706Z,6.50
2019-02-27T00:26:45.732Z,6.10
2019-02-27T00:27:48.692Z,6.00
2019-02-27T00:28:45.675Z,6.40
2019-02-27T00:29:45.663Z,6.40
2019-02-27T00:30:45.653Z,6.20
2019-02-27T00:31:46.201Z,6.70
2019-02-27T00:32:45.635Z,6.50
2019-02-27T00:33:45.654Z,6.50
2019-02-27T00:34:45.650Z,7.00
2019-02-27T00:35:45.608Z,6.40
2019-02-27T00:36:45.708Z,6.10
2019-02-27T00:37:45.589Z,6.10
2019-02-27T00:38:45.576Z,6.20
2019-02-27T00:39:45.564Z,6.30
2019-02-27T00:40:45.556Z,6.40
2019-02-27T00:41:46.059Z,6.10
2019-02-27T00:42:45.546Z,6.70
2019-02-27T00:43:45.526Z,6.20
2019-02-27T00:44:45.517Z,6.70
2019-02-27T00:45:45.507Z,6.40
2019-02-27T00:46:46.465Z,6.40
2019-02-27T00:47:45.484Z,6.10
2019-02-27T00:48:45.477Z,6.40
2019-02-27T00:49:45.470Z,6.40
2019-02-27T00:50:45.462Z,6.20
2019-02-27T00:51:45.522Z,7.00
2019-02-27T00:52:45.442Z,6.50
2019-02-27T00:53:45.489Z,6.70
2019-02-27T00:54:45.418Z,6.30
2019-02-27T00:55:45.424Z,6.60
2019-02-27T00:56:45.725Z,6.30
2019-02-27T00:57:45.390Z,7.00
2019-02-27T00:58:45.377Z,7.10
2019-02-27T00:59:45.369Z,6.80
2019-02-27T01:00:45.358Z,6.50
2019-02-27T01:01:47.498Z,6.50
2019-02-27T01:02:45.340Z,7.70
2019-02-27T01:03:45.332Z,6.60
2019-02-27T01:04:45.317Z,6.80
2019-02-27T01:05:45.323Z,6.50
2019-02-27T01:06:47.454Z,6.80
2019-02-27T01:07:45.290Z,6.70
2019-02-27T01:08:45.280Z,6.70
2019-02-27T01:09:45.271Z,7.10
2019-02-27T01:10:45.870Z,6.20
2019-02-27T01:11:45.256Z,6.80
2019-02-27T01:12:45.303Z,6.50
2019-02-27T01:13:45.230Z,6.30
2019-02-27T01:14:45.219Z,6.50
2019-02-27T01:15:45.209Z,6.80
2019-02-27T01:16:47.694Z,6.70
2019-02-27T01:17:45.202Z,6.40
2019-02-27T01:18:45.177Z,6.40
2019-02-27T01:19:45.169Z,7.40
2019-02-27T01:20:46.441Z,6.80
2019-02-27T01:21:45.150Z,6.80
2019-02-27T01:22:45.139Z,6.50
2019-02-27T01:23:45.136Z,6.60
2019-02-27T01:24:45.116Z,7.40
2019-02-27T01:25:45.109Z,6.50
2019-02-27T01:26:45.099Z,7.40
2019-02-27T01:27:45.092Z,6.60
2019-02-27T01:28:45.623Z,7.00
2019-02-27T01:29:45.067Z,6.90
2019-02-27T01:30:45.057Z,6.10
2019-02-27T01:31:45.052Z,6.50
2019-02-27T01:32:45.039Z,7.10
2019-02-27T01:33:45.034Z,7.10
2019-02-27T01:34:45.093Z,6.80
2019-02-27T01:35:45.009Z,6.70
2019-02-27T01:36:45.013Z,6.50
2019-02-27T01:37:44.993Z,6.90
2019-02-27T01:38:44.977Z,6.60
2019-02-27T01:39:44.972Z,6.90
2019-02-27T01:40:44.956Z,7.50
2019-02-27T01:41:44.947Z,7.10
2019-02-27T01:42:44.964Z,6.60
2019-02-27T01:43:44.925Z,6.60
2019-02-27T01:44:46.566Z,6.10
2019-02-27T01:45:44.910Z,6.90
2019-02-27T01:46:44.898Z,6.40
2019-02-27T01:47:44.887Z,6.60
2019-02-27T01:48:44.877Z,7.40
2019-02-27T01:49:48.922Z,6.20
2019-02-27T01:50:44.857Z,6.00
2019-02-27T01:51:44.847Z,6.20
2019-02-27T01:52:44.839Z,6.70
2019-02-27T01:53:44.827Z,6.60
2019-02-27T01:54:46.097Z,6.50
2019-02-27T01:55:44.806Z,7.10
2019-02-27T01:56:44.794Z,5.90
2019-02-27T01:57:44.788Z,6.60
2019-02-27T01:58:44.783Z,6.10
2019-02-27T01:59:44.763Z,6.40
2019-02-27T02:00:44.761Z,6.50
2019-02-27T02:01:44.742Z,6.30
2019-02-27T02:02:44.736Z,6.90
2019-02-27T02:03:47.163Z,6.20
2019-02-27T02:04:44.711Z,6.80
2019-02-27T02:05:44.701Z,6.30
2019-02-27T02:06:44.691Z,7.00
2019-02-27T02:07:44.681Z,6.80
2019-02-27T02:08:47.983Z,6.00
2019-02-27T02:09:44.659Z,6.30
2019-02-27T02:10:44.655Z,7.20
2019-02-27T02:11:44.637Z,6.20
2019-02-27T02:12:44.627Z,6.20
2019-02-27T02:13:48.022Z,7.10
2019-02-27T02:14:44.611Z,6.30
2019-02-27T02:15:44.596Z,6.30
2019-02-27T02:16:44.586Z,5.90
2019-02-27T02:17:44.582Z,7.20
2019-02-27T02:18:45.732Z,6.60
2019-02-27T02:19:44.558Z,6.50
2019-02-27T02:20:44.545Z,7.10
2019-02-27T02:21:44.536Z,6.50
2019-02-27T02:22:44.525Z,6.50
2019-02-27T02:23:44.947Z,6.50
2019-02-27T02:24:44.507Z,6.70
2019-02-27T02:25:44.494Z,7.30
2019-02-27T02:26:44.483Z,7.20
2019-02-27T02:27:44.473Z,6.70
2019-02-27T02:28:48.072Z,6.80
2019-02-27T02:29:44.452Z,6.80
2019-02-27T02:30:44.453Z,6.70
2019-02-27T02:31:44.438Z,6.20
2019-02-27T02:32:44.423Z,7.00
2019-02-27T02:33:44.416Z,6.60
2019-02-27T02:34:44.402Z,7.30
2019-02-27T02:35:49.748Z,6.80
2019-02-27T02:36:44.381Z,6.50
2019-02-27T02:37:44.375Z,6.80
2019-02-27T02:38:44.357Z,6.50
2019-02-27T02:39:44.349Z,6.60
2019-02-27T02:40:44.339Z,6.30
2019-02-27T02:41:47.971Z,7.10
2019-02-27T02:42:44.320Z,6.10
2019-02-27T02:43:44.326Z,6.60
2019-02-27T02:44:44.364Z,6.30
2019-02-27T02:45:44.285Z,6.30
2019-02-27T02:46:45.282Z,6.50
2019-02-27T02:47:44.267Z,6.60
2019-02-27T02:48:44.253Z,5.90
2019-02-27T02:49:44.262Z,6.30
2019-02-27T02:50:44.234Z,6.70
2019-02-27T02:51:44.227Z,6.30
2019-02-27T02:52:44.212Z,7.00
2019-02-27T02:53:44.203Z,7.30
2019-02-27T02:54:44.190Z,6.60
2019-02-27T02:55:47.729Z,6.20
2019-02-27T02:56:44.172Z,6.50
2019-02-27T02:57:44.162Z,6.60
2019-02-27T02:58:48.435Z,5.90
2019-02-27T02:59:44.136Z,6.40
2019-02-27T03:00:44.127Z,6.70
2019-02-27T03:01:45.589Z,6.00
2019-02-27T03:02:44.109Z,6.30
2019-02-27T03:03:44.112Z,6.60
2019-02-27T03:04:47.933Z,6.20
2019-02-27T03:05:44.086Z,5.90
2019-02-27T03:06:44.067Z,6.60
2019-02-27T03:07:44.871Z,6.40
2019-02-27T03:08:44.045Z,6.10
2019-02-27T03:09:44.032Z,7.00
2019-02-27T03:10:44.022Z,6.40
2019-02-27T03:11:44.017Z,6.50
2019-02-27T03:12:44.005Z,6.20
2019-02-27T03:13:43.998Z,6.00
2019-02-27T03:14:43.985Z,6.50
2019-02-27T03:15:43.976Z,6.70
2019-02-27T03:16:43.964Z,6.40
2019-02-27T03:17:43.951Z,6.90
2019-02-27T03:18:43.937Z,6.10
2019-02-27T03:19:43.953Z,6.50
2019-02-27T03:20:43.917Z,6.90
2019-02-27T03:21:43.909Z,6.90
2019-02-27T03:22:43.898Z,6.40
2019-02-27T03:23:43.890Z,7.60
2019-02-27T03:24:43.886Z,7.00
2019-02-27T03:25:43.871Z,7.50
2019-02-27T03:26:43.854Z,7.00
2019-02-27T03:27:43.842Z,6.40
2019-02-27T03:28:43.829Z,6.60
2019-02-27T03:29:43.819Z,7.00
2019-02-27T03:30:43.814Z,6.90
2019-02-27T03:31:43.803Z,6.60
2019-02-27T03:32:43.955Z,7.00
2019-02-27T03:33:43.781Z,6.70
2019-02-27T03:34:50.435Z,6.50
2019-02-27T03:35:43.764Z,6.90
2019-02-27T03:36:43.748Z,6.90
2019-02-27T03:37:47.975Z,6.40
2019-02-27T03:38:43.725Z,6.50
2019-02-27T03:39:43.714Z,7.30
2019-02-27T03:40:45.146Z,6.80
2019-02-27T03:41:43.694Z,7.10
2019-02-27T03:42:43.684Z,6.50
2019-02-27T03:43:45.978Z,6.90
2019-02-27T03:44:43.662Z,7.10
2019-02-27T03:45:43.655Z,6.70
2019-02-27T03:46:43.647Z,7.00
2019-02-27T03:47:43.634Z,7.10
2019-02-27T03:48:43.620Z,7.00
2019-02-27T03:49:43.609Z,6.70
2019-02-27T03:50:49.556Z,7.80
2019-02-27T03:51:43.598Z,7.40
2019-02-27T03:52:43.577Z,6.70
2019-02-27T03:53:46.437Z,6.80
2019-02-27T03:54:43.566Z,7.00
2019-02-27T03:55:43.554Z,6.80
2019-02-27T03:56:44.673Z,6.70
2019-02-27T03:57:43.527Z,7.10
2019-02-27T03:58:43.516Z,6.90
2019-02-27T03:59:43.851Z,7.40
2019-02-27T04:00:43.507Z,8.00
2019-02-27T04:01:43.499Z,7.30
2019-02-27T04:02:43.474Z,7.10
2019-02-27T04:03:43.462Z,7.10
2019-02-27T04:04:43.470Z,7.30
2019-02-27T04:05:46.033Z,7.50
2019-02-27T04:06:43.430Z,7.10
2019-02-27T04:07:43.427Z,6.60
2019-02-27T04:08:44.827Z,6.80
2019-02-27T04:09:43.399Z,7.10
2019-02-27T04:10:43.389Z,6.90
2019-02-27T04:11:43.389Z,7.20
2019-02-27T04:12:43.366Z,6.80
2019-02-27T04:13:43.364Z,7.60
2019-02-27T04:14:43.343Z,7.50
2019-02-27T04:15:43.335Z,6.20
2019-02-27T04:16:43.327Z,6.80
2019-02-27T04:17:43.312Z,7.20
2019-02-27T04:18:43.304Z,7.30
2019-02-27T04:19:43.301Z,6.50
2019-02-27T04:20:43.280Z,6.50
2019-02-27T04:21:43.272Z,7.50
2019-02-27T04:22:43.266Z,7.30
2019-02-27T04:23:47.949Z,7.00
2019-02-27T04:24:43.239Z,7.40
2019-02-27T04:25:43.236Z,6.40
2019-02-27T04:26:43.223Z,6.40
2019-02-27T04:27:43.206Z,6.60
2019-02-27T04:28:43.195Z,7.00
2019-02-27T04:29:43.195Z,6.90
2019-02-27T04:30:43.175Z,8.00
2019-02-27T04:31:43.168Z,6.80
2019-02-27T04:32:47.650Z,6.90
2019-02-27T04:33:43.148Z,6.50
2019-02-27T04:34:43.134Z,7.20
2019-02-27T04:35:43.126Z,6.70
2019-02-27T04:36:47.014Z,7.10
2019-02-27T04:37:43.102Z,6.20
2019-02-27T04:38:43.090Z,6.60
2019-02-27T04:39:43.077Z,6.40
2019-02-27T04:40:44.168Z,6.30
2019-02-27T04:41:43.057Z,6.90
2019-02-27T04:42:43.045Z,6.30
2019-02-27T04:43:43.035Z,6.00
2019-02-27T04:44:43.024Z,6.10
2019-02-27T04:45:46.435Z,6.40
2019-02-27T04:46:43.003Z,6.10
2019-02-27T04:47:42.993Z,6.30
2019-02-27T04:48:42.982Z,6.90
2019-02-27T04:49:42.971Z,6.30
2019-02-27T04:50:44.176Z,6.60
2019-02-27T04:51:42.949Z,6.70
2019-02-27T04:52:42.939Z,6.20
2019-02-27T04:53:42.931Z,6.20
2019-02-27T04:54:42.920Z,7.30
2019-02-27T04:55:42.906Z,6.30
2019-02-27T04:56:42.898Z,6.40
2019-02-27T04:57:42.884Z,6.70
2019-02-27T04:58:43.688Z,6.90
2019-02-27T04:59:42.865Z,6.00
2019-02-27T05:00:42.858Z,6.60
2019-02-27T05:01:42.845Z,6.60
2019-02-27T05:02:42.834Z,6.80
2019-02-27T05:03:42.825Z,6.80
2019-02-27T05:04:42.810Z,6.60
2019-02-27T05:05:42.802Z,6.60
2019-02-27T05:06:46.849Z,7.50
2019-02-27T05:07:42.779Z,7.00
2019-02-27T05:08:42.773Z,6.30
2019-02-27T05:09:42.760Z,6.80
2019-02-27T05:10:42.746Z,6.70
2019-02-27T05:11:47.573Z,6.70
2019-02-27T05:12:42.729Z,7.30
2019-02-27T05:13:42.717Z,6.10
2019-02-27T05:14:42.711Z,7.20
2019-02-27T05:15:42.692Z,7.00
2019-02-27T05:16:46.953Z,6.60
2019-02-27T05:17:42.672Z,6.60
2019-02-27T05:18:42.665Z,7.00
2019-02-27T05:19:42.649Z,6.90
2019-02-27T05:20:45.069Z,6.80
2019-02-27T05:21:42.636Z,6.70
2019-02-27T05:22:42.628Z,7.20
2019-02-27T05:23:42.620Z,6.90
2019-02-27T05:24:42.596Z,7.50
2019-02-27T05:25:42.593Z,6.30
2019-02-27T05:26:42.575Z,7.40
2019-02-27T05:27:42.571Z,7.70
2019-02-27T05:28:42.554Z,7.00
2019-02-27T05:29:42.559Z,6.80
2019-02-27T05:30:44.771Z,6.90
2019-02-27T05:31:42.521Z,7.10
2019-02-27T05:32:42.512Z,7.40
2019-02-27T05:33:42.506Z,7.50
2019-02-27T05:34:42.491Z,7.00
2019-02-27T05:35:42.478Z,7.30
2019-02-27T05:36:42.469Z,7.50
2019-02-27T05:37:42.460Z,7.50
2019-02-27T05:38:43.680Z,7.70
2019-02-27T05:39:42.439Z,7.60
2019-02-27T05:40:42.428Z,6.70
2019-02-27T05:41:42.414Z,7.50
2019-02-27T05:42:42.404Z,7.10
2019-02-27T05:43:47.558Z,8.00
2019-02-27T05:44:42.381Z,6.80
2019-02-27T05:45:42.371Z,6.70
2019-02-27T05:46:42.360Z,7.30
2019-02-27T05:47:45.841Z,6.90
2019-02-27T05:48:42.348Z,7.80
2019-02-27T05:49:42.332Z,7.10
2019-02-27T05:50:44.347Z,7.20
2019-02-27T05:51:42.308Z,7.90
2019-02-27T05:52:42.296Z,7.10
2019-02-27T05:53:42.289Z,7.90
2019-02-27T05:54:42.276Z,7.50
2019-02-27T05:55:42.267Z,7.30
2019-02-27T05:56:42.254Z,7.60
2019-02-27T05:57:42.243Z,7.30
2019-02-27T05:58:42.229Z,8.70
2019-02-27T05:59:42.221Z,7.20
2019-02-27T06:00:42.214Z,7.10
2019-02-27T06:01:42.196Z,7.00
2019-02-27T06:02:45.068Z,7.60
2019-02-27T06:03:42.177Z,7.70
2019-02-27T06:04:42.176Z,7.30
2019-02-27T06:05:49.365Z,7.90
2019-02-27T06:06:45.037Z,7.20
2019-02-27T06:07:42.131Z,8.00
2019-02-27T06:08:42.121Z,8.00
2019-02-27T06:09:43.745Z,7.40
2019-02-27T06:10:42.097Z,7.10
2019-02-27T06:11:42.090Z,7.60
2019-02-27T06:12:42.088Z,8.50
2019-02-27T06:13:42.068Z,7.00
2019-02-27T06:14:42.055Z,6.80
2019-02-27T06:15:42.045Z,6.50
2019-02-27T06:16:42.032Z,6.50
2019-02-27T06:17:43.616Z,6.80
2019-02-27T06:18:42.028Z,6.90
2019-02-27T06:19:42.000Z,7.60
2019-02-27T06:20:42.541Z,6.90
2019-02-27T06:21:41.983Z,6.60
2019-02-27T06:22:41.967Z,6.20
2019-02-27T06:23:41.955Z,7.50
2019-02-27T06:24:45.252Z,7.80
2019-02-27T06:25:41.942Z,6.50
2019-02-27T06:26:41.943Z,9.20
2019-02-27T06:27:41.914Z,7.20
2019-02-27T06:28:41.967Z,6.50
2019-02-27T06:29:41.891Z,6.60
2019-02-27T06:30:41.880Z,7.00
2019-02-27T06:31:41.869Z,6.70
2019-02-27T06:32:41.859Z,8.10
2019-02-27T06:33:45.070Z,7.30
2019-02-27T06:34:41.837Z,6.90
2019-02-27T06:35:41.824Z,7.10
2019-02-27T06:36:42.858Z,7.40
2019-02-27T06:37:41.805Z,7.30
2019-02-27T06:38:41.794Z,9.70
2019-02-27T06:39:41.779Z,6.40
2019-02-27T06:40:42.321Z,7.80
2019-02-27T06:41:41.758Z,7.70
2019-02-27T06:42:41.749Z,7.00
2019-02-27T06:43:41.735Z,6.80
2019-02-27T06:44:41.726Z,7.60
2019-02-27T06:45:45.492Z,7.40
2019-02-27T06:46:41.738Z,6.80
2019-02-27T06:47:41.692Z,7.90
2019-02-27T06:48:43.603Z,7.50
2019-02-27T06:49:41.672Z,7.90
2019-02-27T06:50:41.663Z,7.20
2019-02-27T06:51:41.650Z,7.10
2019-02-27T06:52:42.452Z,7.00
2019-02-27T06:53:41.626Z,7.00
2019-02-27T06:54:41.619Z,6.30
2019-02-27T06:55:41.607Z,7.70
2019-02-27T06:56:41.595Z,7.20
2019-02-27T06:57:41.934Z,7.50
2019-02-27T06:58:41.578Z,6.80
2019-02-27T06:59:41.567Z,7.30
2019-02-27T07:00:41.556Z,7.50
2019-02-27T07:01:41.542Z,5.70
2019-02-27T07:02:41.532Z,6.00
2019-02-27T07:03:41.517Z,6.70
2019-02-27T07:04:41.518Z,6.00
2019-02-27T07:05:41.494Z,7.50
2019-02-27T07:06:41.485Z,6.40
2019-02-27T07:07:41.476Z,6.40
2019-02-27T07:08:41.465Z,6.40
2019-02-27T07:09:43.217Z,7.00
2019-02-27T07:10:41.441Z,6.10
2019-02-27T07:11:44.936Z,8.50
2019-02-27T07:12:41.507Z,6.10
2019-02-27T07:13:41.408Z,6.50
2019-02-27T07:14:41.397Z,6.80
2019-02-27T07:15:41.394Z,6.10
2019-02-27T07:16:41.379Z,6.10
2019-02-27T07:17:41.365Z,6.40
2019-02-27T07:18:42.376Z,6.00
2019-02-27T07:19:41.342Z,6.70
2019-02-27T07:20:41.334Z,6.00
2019-02-27T07:21:41.324Z,5.70
2019-02-27T07:22:45.675Z,5.10
2019-02-27T07:23:41.307Z,5.10
2019-02-27T07:24:41.288Z,5.20
2019-02-27T07:25:42.176Z,5.90
2019-02-27T07:26:41.269Z,5.80
2019-02-27T07:27:41.264Z,5.30
2019-02-27T07:28:43.438Z,5.80
2019-02-27T07:29:42.804Z,6.40
2019-02-27T07:30:42.652Z,5.70
2019-02-27T07:31:41.225Z,6.20
2019-02-27T07:32:41.221Z,6.70
2019-02-27T07:33:41.223Z,6.20
2019-02-27T07:34:41.339Z,7.30
2019-02-27T07:35:41.175Z,6.50
2019-02-27T07:36:41.161Z,6.10
2019-02-27T07:37:41.150Z,5.40
2019-02-27T07:38:41.146Z,6.20
2019-02-27T07:39:41.128Z,8.60
2019-02-27T07:40:42.935Z,6.80
2019-02-27T07:41:41.122Z,5.90
2019-02-27T07:42:41.100Z,5.80
2019-02-27T07:43:41.085Z,5.70
2019-02-27T07:44:42.242Z,6.00
2019-02-27T07:45:42.717Z,6.10
2019-02-27T07:46:41.067Z,6.20
2019-02-27T07:47:41.057Z,7.20
2019-02-27T07:48:41.034Z,6.20
2019-02-27T07:49:41.023Z,11.30
2019-02-27T07:50:41.012Z,5.70
2019-02-27T07:51:41.068Z,6.00
2019-02-27T07:52:40.995Z,6.00
2019-02-27T07:53:40.981Z,5.50
2019-02-27T07:54:40.970Z,6.50
2019-02-27T07:55:40.960Z,6.00
2019-02-27T07:56:40.948Z,6.50
2019-02-27T07:57:40.937Z,6.30
2019-02-27T07:58:40.933Z,7.40
2019-02-27T07:59:40.915Z,7.10
2019-02-27T08:00:42.780Z,7.20
2019-02-27T08:01:43.751Z,6.80
2019-02-27T08:02:40.884Z,6.30
2019-02-27T08:03:44.640Z,6.40
2019-02-27T08:04:40.860Z,6.20
2019-02-27T08:05:40.852Z,6.40
2019-02-27T08:06:41.532Z,7.10
2019-02-27T08:07:40.830Z,7.00
2019-02-27T08:08:40.823Z,6.60
2019-02-27T08:09:40.807Z,7.00
2019-02-27T08:10:40.801Z,6.90
2019-02-27T08:11:40.790Z,6.80
2019-02-27T08:12:40.774Z,6.40
2019-02-27T08:13:40.771Z,6.50
2019-02-27T08:14:40.754Z,6.90
2019-02-27T08:15:40.744Z,7.40
2019-02-27T08:16:40.738Z,6.70
2019-02-27T08:17:40.722Z,6.60
2019-02-27T08:18:40.713Z,6.10
2019-02-27T08:19:42.823Z,6.30
2019-02-27T08:20:40.691Z,6.90
2019-02-27T08:21:40.681Z,6.50
2019-02-27T08:22:40.671Z,6.50
2019-02-27T08:23:40.659Z,7.50
2019-02-27T08:24:40.651Z,6.60
2019-02-27T08:25:40.644Z,6.40
2019-02-27T08:26:40.630Z,6.30
2019-02-27T08:27:43.050Z,6.80
2019-02-27T08:28:40.610Z,6.90
2019-02-27T08:29:40.596Z,6.30
2019-02-27T08:30:40.590Z,6.00
2019-02-27T08:31:40.579Z,7.20
2019-02-27T08:32:40.567Z,6.90
2019-02-27T08:33:40.571Z,6.80
2019-02-27T08:34:40.545Z,6.50
2019-02-27T08:35:40.540Z,7.20
2019-02-27T08:36:40.530Z,7.10
2019-02-27T08:37:40.519Z,6.70
2019-02-27T08:38:40.507Z,6.70
2019-02-27T08:39:40.503Z,7.30
2019-02-27T08:40:40.486Z,7.80
2019-02-27T08:41:40.476Z,7.00
2019-02-27T08:42:40.703Z,7.10
2019-02-27T08:43:41.207Z,7.10
2019-02-27T08:44:42.968Z,7.10
2019-02-27T08:45:40.435Z,6.00
2019-02-27T08:46:40.430Z,6.20
2019-02-27T08:47:40.891Z,7.50
2019-02-27T08:48:40.441Z,8.10
2019-02-27T08:49:40.397Z,8.10
2019-02-27T08:50:40.387Z,6.40
2019-02-27T08:51:42.116Z,17.20
2019-02-27T08:52:40.364Z,8.30
2019-02-27T08:53:40.363Z,7.40
2019-02-27T08:54:40.579Z,12.50
2019-02-27T08:55:40.335Z,7.80
2019-02-27T08:56:40.403Z,7.20
2019-02-27T08:57:40.316Z,10.90
2019-02-27T08:58:40.306Z,13.60
2019-02-27T08:59:40.775Z,8.40
2019-02-27T09:00:40.294Z,8.00
2019-02-27T09:01:40.278Z,6.30
2019-02-27T09:02:40.270Z,6.30
2019-02-27T09:03:40.259Z,5.70
2019-02-27T09:04:42.909Z,6.20
2019-02-27T09:05:40.239Z,6.20
2019-02-27T09:06:40.231Z,5.90
2019-02-27T09:07:40.226Z,5.90
2019-02-27T09:08:43.322Z,6.50
2019-02-27T09:09:40.204Z,6.60
2019-02-27T09:10:40.302Z,6.30
2019-02-27T09:11:40.731Z,6.40
2019-02-27T09:12:40.338Z,6.80
2019-02-27T09:13:40.165Z,6.00
2019-02-27T09:14:40.158Z,6.50
2019-02-27T09:15:41.721Z,6.40
2019-02-27T09:16:40.141Z,6.40
2019-02-27T09:17:40.131Z,7.30
2019-02-27T09:18:40.117Z,7.60
2019-02-27T09:19:44.974Z,7.30
2019-02-27T09:20:40.098Z,6.70
2019-02-27T09:21:40.094Z,7.00
2019-02-27T09:22:40.082Z,6.20
2019-02-27T09:23:40.070Z,6.50
2019-02-27T09:24:40.070Z,7.50
2019-02-27T09:25:40.055Z,7.50
2019-02-27T09:26:40.043Z,8.60
2019-02-27T09:27:40.040Z,6.70
2019-02-27T09:28:44.316Z,7.00
2019-02-27T09:29:40.015Z,7.20
2019-02-27T09:30:40.006Z,7.50
2019-02-27T09:31:50.268Z,9.30
2019-02-27T09:32:40.000Z,7.00
2019-02-27T09:33:39.980Z,8.60
2019-02-27T09:34:39.975Z,9.00
2019-02-27T09:35:40.253Z,6.00
2019-02-27T09:36:43.044Z,6.50
2019-02-27T09:37:39.947Z,7.40
2019-02-27T09:38:39.937Z,7.00
2019-02-27T09:39:39.931Z,8.90
2019-02-27T09:40:40.061Z,8.50
2019-02-27T09:41:39.908Z,7.00
2019-02-27T09:42:39.913Z,8.10
2019-02-27T09:43:39.898Z,23.30
2019-02-27T09:44:39.884Z,12.40
2019-02-27T09:45:39.889Z,9.60
2019-02-27T09:46:39.870Z,10.50
2019-02-27T09:47:39.861Z,12.60
2019-02-27T09:48:39.863Z,8.40
2019-02-27T09:49:40.627Z,7.20
2019-02-27T09:50:39.836Z,7.60
2019-02-27T09:51:39.826Z,8.40
2019-02-27T09:52:39.816Z,7.60
2019-02-27T09:53:39.819Z,8.20
2019-02-27T09:54:39.798Z,7.70
2019-02-27T09:55:39.799Z,7.60
2019-02-27T09:56:39.786Z,8.80
2019-02-27T09:57:39.774Z,7.80
2019-02-27T09:58:45.082Z,7.50
2019-02-27T09:59:40.062Z,7.70
2019-02-27T10:00:39.770Z,7.30
2019-02-27T10:01:39.748Z,7.90
2019-02-27T10:02:39.992Z,8.60
2019-02-27T10:03:39.724Z,7.60
2019-02-27T10:04:39.721Z,8.70
2019-02-27T10:05:40.860Z,11.10
2019-02-27T10:06:40.450Z,8.20
2019-02-27T10:07:39.700Z,9.90
2019-02-27T10:08:39.684Z,12.90
2019-02-27T10:09:40.417Z,16.60
2019-02-27T10:10:39.696Z,11.30
2019-02-27T10:11:39.666Z,24.50
2019-02-27T10:12:39.656Z,12.80
2019-02-27T10:13:39.683Z,15.90
2019-02-27T10:14:39.722Z,12.10
2019-02-27T10:15:39.643Z,7.80
2019-02-27T10:16:39.622Z,7.70
2019-02-27T10:17:41.027Z,10.10
2019-02-27T10:18:39.694Z,8.50
2019-02-27T10:19:40.146Z,8.20
2019-02-27T10:20:39.591Z,8.30
2019-02-27T10:21:41.270Z,7.90
2019-02-27T10:22:39.584Z,10.90
2019-02-27T10:23:39.581Z,39.60
2019-02-27T10:24:39.580Z,10.30
2019-02-27T10:25:43.198Z,9.20
2019-02-27T10:26:39.559Z,8.50
2019-02-27T10:27:39.538Z,8.90
2019-02-27T10:28:39.851Z,9.00
2019-02-27T10:29:39.564Z,9.00
2019-02-27T10:30:39.849Z,8.50
2019-02-27T10:31:39.562Z,8.90
2019-02-27T10:32:39.506Z,8.10
2019-02-27T10:33:39.668Z,8.30
2019-02-27T10:34:39.503Z,8.50
2019-02-27T10:35:39.491Z,8.20
2019-02-27T10:36:39.476Z,8.90
2019-02-27T10:37:39.544Z,9.20
2019-02-27T10:38:40.374Z,8.30
2019-02-27T10:39:39.470Z,8.90
2019-02-27T10:40:39.466Z,7.50
2019-02-27T10:41:39.455Z,7.10
2019-02-27T10:42:39.443Z,7.90
2019-02-27T10:43:39.429Z,7.90
2019-02-27T10:44:39.435Z,7.40
2019-02-27T10:45:39.547Z,8.50
2019-02-27T10:46:39.407Z,9.70
2019-02-27T10:47:39.909Z,38.70
2019-02-27T10:48:40.114Z,25.50
2019-02-27T10:49:39.399Z,20.50
2019-02-27T10:50:39.378Z,22.20
2019-02-27T10:51:41.556Z,23.20
2019-02-27T10:52:39.364Z,90.10
2019-02-27T10:53:39.363Z,42.70
2019-02-27T10:54:39.912Z,17.00
2019-02-27T10:55:39.344Z,22.00
2019-02-27T10:56:39.341Z,11.60
2019-02-27T10:57:39.393Z,14.80
2019-02-27T10:58:39.421Z,13.30
2019-02-27T10:59:39.317Z,17.60
2019-02-27T11:00:39.325Z,20.90
2019-02-27T11:01:39.307Z,32.80
2019-02-27T11:02:39.332Z,27.10
2019-02-27T11:03:39.303Z,33.60
2019-02-27T11:04:39.634Z,26.20
2019-02-27T11:05:39.279Z,15.80
2019-02-27T11:06:39.322Z,13.00
2019-02-27T11:07:39.270Z,11.40
2019-02-27T11:08:39.299Z,12.60
2019-02-27T11:09:41.215Z,12.70
2019-02-27T11:10:39.256Z,14.10
2019-02-27T11:11:39.417Z,11.80
2019-02-27T11:12:39.241Z,11.00
2019-02-27T11:13:39.230Z,9.90
2019-02-27T11:14:39.224Z,13.60
2019-02-27T11:15:41.430Z,8.20
2019-02-27T11:16:39.213Z,32.00
2019-02-27T11:17:39.206Z,26.50
2019-02-27T11:18:39.200Z,18.00
2019-02-27T11:19:39.239Z,26.80
2019-02-27T11:20:39.296Z,14.20
2019-02-27T11:21:39.412Z,17.60
2019-02-27T11:22:40.217Z,16.10
2019-02-27T11:23:41.150Z,11.20
2019-02-27T11:24:39.162Z,14.00
2019-02-27T11:25:39.255Z,13.50
2019-02-27T11:26:39.156Z,16.80
2019-02-27T11:27:39.726Z,15.00
2019-02-27T11:28:39.283Z,13.10
2019-02-27T11:29:40.250Z,13.10
2019-02-27T11:30:39.132Z,11.40
2019-02-27T11:31:39.291Z,9.90
2019-02-27T11:32:39.126Z,9.10
2019-02-27T11:33:39.117Z,9.40
2019-02-27T11:34:39.125Z,9.00
2019-02-27T11:35:39.104Z,9.80
2019-02-27T11:36:39.657Z,9.50
2019-02-27T11:37:39.115Z,8.70
2019-02-27T11:38:39.093Z,10.20
2019-02-27T11:39:39.077Z,11.70
2019-02-27T11:40:41.805Z,9.30
2019-02-27T11:41:39.069Z,8.70
2019-02-27T11:42:39.063Z,8.90
2019-02-27T11:43:40.808Z,8.10
2019-02-27T11:44:39.124Z,7.40
2019-02-27T11:45:39.046Z,7.50
2019-02-27T11:46:39.050Z,7.90
2019-02-27T11:47:39.041Z,8.20
2019-02-27T11:48:39.030Z,8.30
2019-02-27T11:49:39.368Z,8.60
2019-02-27T11:50:39.019Z,7.90
2019-02-27T11:51:39.032Z,8.40
2019-02-27T11:52:46.239Z,8.20
2019-02-27T11:53:39.017Z,7.70
2019-02-27T11:54:42.892Z,7.70
2019-02-27T11:55:38.999Z,18.50
2019-02-27T11:56:38.988Z,11.30
2019-02-27T11:57:38.988Z,8.50
2019-02-27T11:58:39.159Z,8.30
2019-02-27T11:59:38.976Z,9.60
2019-02-27T12:00:38.968Z,8.50
2019-02-27T12:01:39.000Z,7.40
2019-02-27T12:02:38.965Z,7.40
2019-02-27T12:03:38.961Z,7.60
2019-02-27T12:04:39.177Z,8.40
2019-02-27T12:05:38.946Z,8.30
2019-02-27T12:06:41.368Z,8.30
2019-02-27T12:07:38.938Z,10.00
2019-02-27T12:08:38.932Z,9.00
2019-02-27T12:09:38.931Z,10.50
2019-02-27T12:10:38.932Z,11.90
2019-02-27T12:11:38.921Z,9.80
2019-02-27T12:12:38.914Z,9.40
2019-02-27T12:13:38.919Z,8.50
2019-02-27T12:14:38.944Z,9.50
2019-02-27T12:15:43.303Z,8.50
2019-02-27T12:16:38.897Z,17.70
2019-02-27T12:17:38.906Z,16.00
2019-02-27T12:18:38.887Z,10.10
2019-02-27T12:19:42.506Z,8.90
2019-02-27T12:20:38.877Z,10.70
2019-02-27T12:21:38.882Z,11.20
2019-02-27T12:22:38.871Z,9.40
2019-02-27T12:23:41.242Z,9.50
2019-02-27T12:24:38.862Z,11.20
2019-02-27T12:25:38.857Z,20.00
2019-02-27T12:26:38.997Z,21.00
2019-02-27T12:27:49.294Z,14.20
2019-02-27T12:28:38.849Z,11.10
2019-02-27T12:29:38.842Z,10.60
2019-02-27T12:30:38.842Z,12.40
2019-02-27T12:31:38.835Z,10.30
2019-02-27T12:32:38.828Z,10.40
2019-02-27T12:33:38.826Z,10.30
2019-02-27T12:34:38.821Z,9.30
2019-02-27T12:35:38.939Z,9.50
2019-02-27T12:36:38.814Z,9.50
2019-02-27T12:37:38.811Z,9.50
2019-02-27T12:38:39.346Z,9.50
2019-02-27T12:39:38.801Z,8.80
2019-02-27T12:40:38.968Z,8.70
2019-02-27T12:41:38.803Z,8.60
2019-02-27T12:42:42.542Z,8.50
2019-02-27T12:43:38.786Z,9.00
2019-02-27T12:44:38.788Z,9.10
2019-02-27T12:45:38.787Z,8.70
2019-02-27T12:46:38.780Z,9.40
2019-02-27T12:47:40.646Z,9.20
2019-02-27T12:48:38.775Z,8.70
2019-02-27T12:49:38.766Z,7.90
2019-02-27T12:50:38.762Z,8.20
2019-02-27T12:51:39.068Z,9.70
2019-02-27T12:52:38.756Z,9.30
2019-02-27T12:53:38.760Z,7.70
2019-02-27T12:54:38.755Z,8.30
2019-02-27T12:55:38.941Z,8.70
2019-02-27T12:56:41.545Z,9.00
2019-02-27T12:57:38.739Z,8.80
2019-02-27T12:58:38.792Z,7.40
2019-02-27T12:59:38.731Z,9.20
2019-02-27T13:00:39.993Z,9.00
2019-02-27T13:01:38.731Z,11.40
2019-02-27T13:02:38.720Z,8.00
2019-02-27T13:03:42.222Z,8.00
2019-02-27T13:04:38.716Z,7.60
2019-02-27T13:05:38.719Z,7.90
2019-02-27T13:06:38.709Z,8.50
2019-02-27T13:07:38.703Z,7.40
2019-02-27T13:08:38.701Z,7.90
2019-02-27T13:09:38.715Z,7.70
2019-02-27T13:10:38.753Z,7.10
2019-02-27T13:11:39.063Z,7.00
2019-02-27T13:12:38.738Z,6.40
2019-02-27T13:13:38.722Z,7.00
2019-02-27T13:14:38.681Z,6.40
2019-02-27T13:15:41.158Z,6.30